Back to Top

Language: 

My Weather Underground Personal Weather Station Historical Data with Graphs...

Delerius Weather Station Historical Data
Daily Summary for September 1, 2017 Units:  English    Metric   Both
« Previous Day
Next Day »
Daily Weekly Monthly Yearly Custom
  High: Low: Average:
Temperature: 68.7 °F 43.5 °F 56.4 °F
Dew Point: 56.1 °F 42.2 °F 49.7 °F
Humidity: 97 % 50 % 80 %
Wind Speed: 10.0 mph 0.0 mph 2.4 mph
Wind Gust: 21.0 mph - -
Wind:- - WNW
Pressure: 30.23 in 30.12 in -
Precipitation: 0.04 in    
Historical Graphs
 
 
Tabular Data for September 1, 2017
Time Temperature Dew Point Pressure Wind Wind Speed Wind Gust Humidity Rainfall Rate (Hourly) solar Conditions
00:02 48.4 °F 45.9 °F 30.12 in Calm     91 % 0.00 in 0 W/m2
00:07 48.2 °F 45.7 °F 30.12 in Calm     91 % 0.00 in 0 W/m2
00:12 48.0 °F 45.5 °F 30.12 in Calm     91 % 0.00 in 0 W/m2
00:17 47.8 °F 45.3 °F 30.12 in Calm     91 % 0.00 in 0 W/m2
00:22 47.7 °F 45.2 °F 30.12 in Calm     91 % 0.00 in 0 W/m2
00:27 47.7 °F 45.5 °F 30.12 in Calm     92 % 0.00 in 0 W/m2
00:32 47.5 °F 45.3 °F 30.12 in Calm     92 % 0.00 in 0 W/m2
00:37 47.5 °F 45.3 °F 30.12 in Calm     92 % 0.00 in 0 W/m2
00:42 47.5 °F 45.3 °F 30.12 in Calm     92 % 0.00 in 0 W/m2
00:47 47.3 °F 45.1 °F 30.12 in Calm     92 % 0.00 in 0 W/m2
00:52 47.5 °F 45.6 °F 30.12 in Calm     93 % 0.00 in 0 W/m2
00:57 47.5 °F 45.6 °F 30.12 in Calm     93 % 0.00 in 0 W/m2
01:02 47.5 °F 45.6 °F 30.12 in Calm     93 % 0.00 in 0 W/m2
01:07 47.5 °F 45.6 °F 30.12 in Calm     93 % 0.00 in 0 W/m2
01:12 47.3 °F 45.4 °F 30.12 in Calm   1.0 mph 93 % 0.00 in 0 W/m2
01:17 47.1 °F 45.2 °F 30.12 in Calm   1.0 mph 93 % 0.00 in 0 W/m2
01:22 46.9 °F 44.7 °F 30.12 in Calm   1.0 mph 92 % 0.00 in 0 W/m2
01:27 46.8 °F 44.6 °F 30.12 in Calm     92 % 0.00 in 0 W/m2
01:32 46.6 °F 44.4 °F 30.12 in Calm     92 % 0.00 in 0 W/m2
01:37 46.6 °F 44.7 °F 30.12 in Calm     93 % 0.00 in 0 W/m2
01:42 46.4 °F 44.5 °F 30.12 in Calm     93 % 0.00 in 0 W/m2
01:47 46.4 °F 44.5 °F 30.12 in North 1.0 mph 4.0 mph 93 % 0.00 in 0 W/m2
01:52 46.4 °F 44.5 °F 30.12 in North 2.0 mph 5.0 mph 93 % 0.00 in 0 W/m2
01:57 46.6 °F 44.9 °F 30.12 in North 1.0 mph 5.0 mph 94 % 0.00 in 0 W/m2
02:02 46.8 °F 45.1 °F 30.12 in Calm   3.0 mph 94 % 0.00 in 0 W/m2
02:07 46.9 °F 45.3 °F 30.12 in Calm   3.0 mph 94 % 0.00 in 0 W/m2
02:12 46.9 °F 45.3 °F 30.12 in Calm   1.0 mph 94 % 0.00 in 0 W/m2
02:17 46.9 °F 45.0 °F 30.12 in Calm   1.0 mph 93 % 0.00 in 0 W/m2
02:23 46.8 °F 44.8 °F 30.12 in NW 1.0 mph 3.0 mph 93 % 0.00 in 0 W/m2
02:28 46.6 °F 44.7 °F 30.12 in NW 1.0 mph 3.0 mph 93 % 0.00 in 0 W/m2
02:33 46.6 °F 44.7 °F 30.12 in Calm   2.0 mph 93 % 0.00 in 0 W/m2
02:38 46.6 °F 44.9 °F 30.12 in NW 1.0 mph 2.0 mph 94 % 0.00 in 0 W/m2
02:43 46.6 °F 44.9 °F 30.12 in NW 1.0 mph 2.0 mph 94 % 0.00 in 0 W/m2
02:48 46.4 °F 44.8 °F 30.12 in Calm   2.0 mph 94 % 0.00 in 0 W/m2
02:53 46.6 °F 44.9 °F 30.12 in Calm   2.0 mph 94 % 0.00 in 0 W/m2
02:58 46.6 °F 44.9 °F 30.12 in Calm   2.0 mph 94 % 0.00 in 0 W/m2
03:03 46.4 °F 44.8 °F 30.12 in Calm     94 % 0.00 in 0 W/m2
03:04 46.4 °F 44.8 °F 30.12 in Calm     94 % 0.00 in 0 W/m2
03:08 46.4 °F 44.8 °F 30.12 in Calm     94 % 0.00 in 0 W/m2
03:13 46.2 °F 44.6 °F 30.12 in Calm     94 % 0.00 in 0 W/m2
03:18 46.2 °F 44.6 °F 30.12 in Calm   2.0 mph 94 % 0.00 in 0 W/m2
03:23 46.0 °F 44.4 °F 30.13 in Calm   2.0 mph 94 % 0.00 in 0 W/m2
03:28 46.0 °F 44.4 °F 30.13 in Calm   2.0 mph 94 % 0.00 in 0 W/m2
03:33 45.9 °F 44.2 °F 30.13 in Calm     94 % 0.00 in 0 W/m2
03:38 45.9 °F 44.2 °F 30.12 in Calm     94 % 0.00 in 0 W/m2
03:43 45.9 °F 44.2 °F 30.13 in Calm     94 % 0.00 in 0 W/m2
03:48 45.7 °F 44.1 °F 30.13 in Calm   1.0 mph 94 % 0.00 in 0 W/m2
03:53 45.7 °F 44.1 °F 30.13 in NW 1.0 mph 2.0 mph 94 % 0.00 in 0 W/m2
03:58 45.7 °F 44.1 °F 30.13 in NW 1.0 mph 2.0 mph 94 % 0.00 in 0 W/m2
04:03 45.5 °F 43.9 °F 30.13 in Calm   1.0 mph 94 % 0.00 in 0 W/m2
04:08 45.5 °F 43.9 °F 30.13 in Calm   3.0 mph 94 % 0.00 in 0 W/m2
04:09 45.5 °F 43.9 °F 30.13 in Calm   5.0 mph 94 % 0.00 in 0 W/m2
04:15 45.3 °F 43.7 °F 30.13 in NW 1.0 mph 5.0 mph 94 % 0.00 in 0 W/m2
04:20 45.3 °F 43.7 °F 30.13 in NW 1.0 mph 4.0 mph 94 % 0.00 in 0 W/m2
04:24 45.1 °F 43.5 °F 30.13 in Calm     94 % 0.00 in 0 W/m2
04:25 45.1 °F 43.5 °F 30.13 in Calm     94 % 0.00 in 0 W/m2
04:27 45.1 °F 43.5 °F 30.13 in Calm     94 % 0.00 in 0 W/m2
04:28 45.1 °F 43.5 °F 30.13 in Calm   1.0 mph 94 % 0.00 in 0 W/m2
04:33 45.0 °F 43.3 °F 30.13 in Calm   1.0 mph 94 % 0.00 in 0 W/m2
04:38 45.0 °F 43.3 °F 30.13 in Calm   1.0 mph 94 % 0.00 in 0 W/m2
04:43 44.8 °F 43.2 °F 30.13 in Calm   1.0 mph 94 % 0.00 in 0 W/m2
04:48 44.6 °F 43.0 °F 30.14 in Calm     94 % 0.00 in 0 W/m2
04:53 44.4 °F 42.8 °F 30.14 in Calm     94 % 0.00 in 0 W/m2
04:58 44.4 °F 42.8 °F 30.14 in Calm   1.0 mph 94 % 0.00 in 0 W/m2
05:03 44.2 °F 42.6 °F 30.14 in Calm   1.0 mph 94 % 0.00 in 0 W/m2
05:08 44.2 °F 42.9 °F 30.14 in Calm     95 % 0.00 in 0 W/m2
05:13 44.2 °F 42.9 °F 30.14 in Calm     95 % 0.00 in 0 W/m2
05:18 44.2 °F 42.9 °F 30.14 in Calm     95 % 0.00 in 0 W/m2
05:23 44.1 °F 42.7 °F 30.14 in Calm     95 % 0.00 in 0 W/m2
05:28 44.1 °F 42.7 °F 30.14 in Calm     95 % 0.00 in 0 W/m2
05:33 44.1 °F 42.7 °F 30.15 in Calm     95 % 0.00 in 0 W/m2
05:38 44.1 °F 42.7 °F 30.15 in Calm     95 % 0.00 in 0 W/m2
05:43 44.2 °F 42.9 °F 30.15 in Calm     95 % 0.00 in 0 W/m2
05:48 44.2 °F 42.9 °F 30.15 in Calm     95 % 0.00 in 0 W/m2
05:53 44.1 °F 42.7 °F 30.15 in Calm     95 % 0.00 in 0 W/m2
05:58 44.1 °F 42.7 °F 30.15 in Calm   1.0 mph 95 % 0.00 in 0 W/m2
06:03 44.1 °F 42.7 °F 30.15 in Calm   1.0 mph 95 % 0.00 in 0 W/m2
06:09 44.1 °F 42.7 °F 30.15 in Calm     95 % 0.00 in 0 W/m2
06:14 44.1 °F 42.7 °F 30.15 in Calm     95 % 0.00 in 0 W/m2
06:19 44.1 °F 42.7 °F 30.15 in Calm     95 % 0.00 in 5 W/m2
06:24 43.9 °F 42.5 °F 30.15 in Calm     95 % 0.00 in 7 W/m2
06:29 43.7 °F 42.4 °F 30.15 in Calm     95 % 0.00 in 11 W/m2
06:34 43.5 °F 42.2 °F 30.15 in Calm   1.0 mph 95 % 0.00 in 12 W/m2
06:39 43.9 °F 42.8 °F 30.15 in Calm   2.0 mph 96 % 0.00 in 14 W/m2
06:44 44.1 °F 43.0 °F 30.15 in Calm   2.0 mph 96 % 0.00 in 16 W/m2
06:49 44.2 °F 43.2 °F 30.15 in Calm   1.0 mph 96 % 0.00 in 18 W/m2
06:55 44.4 °F 43.4 °F 30.15 in Calm   2.0 mph 96 % 0.00 in 19 W/m2
07:00 44.6 °F 43.5 °F 30.16 in Calm   2.0 mph 96 % 0.00 in 39 W/m2
07:05 44.8 °F 43.7 °F 30.16 in Calm     96 % 0.00 in 33 W/m2
07:10 44.8 °F 43.7 °F 30.16 in Calm     96 % 0.00 in 37 W/m2
07:15 45.1 °F 44.1 °F 30.16 in Calm     96 % 0.00 in 69 W/m2
07:20 45.3 °F 44.2 °F 30.16 in Calm     96 % 0.00 in 118 W/m2
07:25 45.9 °F 44.8 °F 30.16 in Calm     96 % 0.00 in 127 W/m2
07:30 46.6 °F 45.8 °F 30.17 in Calm     97 % 0.00 in 139 W/m2
07:35 46.9 °F 46.1 °F 30.17 in Calm     97 % 0.00 in 149 W/m2
07:40 47.7 °F 46.9 °F 30.17 in Calm     97 % 0.00 in 162 W/m2
07:45 48.7 °F 47.9 °F 30.17 in Calm     97 % 0.00 in 172 W/m2
07:50 48.9 °F 47.8 °F 30.17 in Calm     96 % 0.00 in 56 W/m2
07:55 49.1 °F 47.7 °F 30.17 in Calm     95 % 0.00 in 162 W/m2
08:00 49.3 °F 47.9 °F 30.17 in Calm     95 % 0.00 in 211 W/m2
08:05 49.6 °F 48.3 °F 30.17 in Calm     95 % 0.00 in 225 W/m2
08:10 50.7 °F 49.6 °F 30.17 in Calm     96 % 0.00 in 237 W/m2
08:15 52.0 °F 50.9 °F 30.17 in Calm     96 % 0.00 in 246 W/m2
08:20 52.9 °F 51.5 °F 30.17 in Calm     95 % 0.00 in 262 W/m2
08:25 53.4 °F 51.7 °F 30.17 in Calm     94 % 0.00 in 272 W/m2
08:30 54.1 °F 52.2 °F 30.18 in Calm   1.0 mph 93 % 0.00 in 283 W/m2
08:35 55.0 °F 52.8 °F 30.18 in Calm   5.0 mph 92 % 0.00 in 297 W/m2
08:40 55.9 °F 52.7 °F 30.18 in NW 2.0 mph 9.0 mph 89 % 0.00 in 313 W/m2
08:45 56.8 °F 52.4 °F 30.18 in NW 4.0 mph 9.0 mph 85 % 0.00 in 327 W/m2
08:50 57.7 °F 51.9 °F 30.18 in NW 5.0 mph 10.0 mph 81 % 0.00 in 339 W/m2
08:55 58.6 °F 52.1 °F 30.18 in NW 6.0 mph 10.0 mph 79 % 0.00 in 355 W/m2
09:00 59.2 °F 52.3 °F 30.18 in NW 5.0 mph 9.0 mph 78 % 0.00 in 369 W/m2
09:05 59.9 °F 52.3 °F 30.19 in NW 4.0 mph 9.0 mph 76 % 0.00 in 381 W/m2
09:10 60.4 °F 52.5 °F 30.19 in NNW 4.0 mph 9.0 mph 75 % 0.00 in 396 W/m2
09:15 61.0 °F 52.6 °F 30.19 in NNW 4.0 mph 9.0 mph 74 % 0.00 in 415 W/m2
09:20 61.5 °F 52.8 °F 30.19 in NNW 4.0 mph 9.0 mph 73 % 0.00 in 431 W/m2
09:25 61.9 °F 52.4 °F 30.19 in NNW 5.0 mph 9.0 mph 71 % 0.00 in 452 W/m2
09:30 62.2 °F 52.7 °F 30.19 in NNW 5.0 mph 9.0 mph 71 % 0.00 in 469 W/m2
09:35 62.8 °F 52.8 °F 30.19 in NW 4.0 mph 9.0 mph 70 % 0.00 in 485 W/m2
09:40 63.3 °F 53.0 °F 30.18 in NW 3.0 mph 9.0 mph 69 % 0.00 in 508 W/m2
09:45 63.9 °F 52.7 °F 30.18 in NW 4.0 mph 9.0 mph 67 % 0.00 in 526 W/m2
09:50 63.9 °F 52.3 °F 30.18 in NW 6.0 mph 12.0 mph 66 % 0.00 in 540 W/m2
09:55 64.0 °F 52.4 °F 30.18 in NW 5.0 mph 12.0 mph 66 % 0.00 in 573 W/m2
10:00 64.4 °F 52.4 °F 30.18 in NNW 4.0 mph 10.0 mph 65 % 0.00 in 598 W/m2
10:05 64.8 °F 52.3 °F 30.18 in NW 4.0 mph 9.0 mph 64 % 0.00 in 617 W/m2
10:11 64.9 °F 52.5 °F 30.18 in NW 5.0 mph 10.0 mph 64 % 0.00 in 487 W/m2
10:16 64.8 °F 51.9 °F 30.18 in NW 5.0 mph 10.0 mph 63 % 0.00 in 320 W/m2
10:21 64.6 °F 51.7 °F 30.18 in NW 4.0 mph 10.0 mph 63 % 0.00 in 432 W/m2
10:26 64.6 °F 52.1 °F 30.18 in NW 5.0 mph 10.0 mph 64 % 0.00 in 501 W/m2
10:31 64.4 °F 52.4 °F 30.18 in WNW 6.0 mph 12.0 mph 65 % 0.00 in 325 W/m2
10:36 64.2 °F 52.6 °F 30.18 in NW 5.0 mph 12.0 mph 66 % 0.00 in 580 W/m2
10:41 64.2 °F 52.2 °F 30.18 in NW 6.0 mph 11.0 mph 65 % 0.00 in 656 W/m2
10:46 64.2 °F 52.2 °F 30.18 in NW 6.0 mph 11.0 mph 65 % 0.00 in 589 W/m2
10:51 64.4 °F 52.8 °F 30.18 in NW 4.0 mph 9.0 mph 66 % 0.00 in 761 W/m2
10:56 65.1 °F 53.1 °F 30.18 in NW 5.0 mph 10.0 mph 65 % 0.00 in 840 W/m2
11:01 65.3 °F 52.4 °F 30.18 in WNW 5.0 mph 10.0 mph 63 % 0.00 in 615 W/m2
11:06 65.1 °F 52.2 °F 30.18 in WNW 4.0 mph 9.0 mph 63 % 0.00 in 244 W/m2
11:11 64.8 °F 51.9 °F 30.18 in WNW 5.0 mph 11.0 mph 63 % 0.00 in 185 W/m2
11:16 64.4 °F 52.0 °F 30.18 in NW 6.0 mph 11.0 mph 64 % 0.00 in 283 W/m2
11:21 64.2 °F 52.2 °F 30.18 in NW 5.0 mph 9.0 mph 65 % 0.00 in 227 W/m2
11:26 64.2 °F 52.2 °F 30.18 in NW 4.0 mph 9.0 mph 65 % 0.00 in 285 W/m2
11:31 64.0 °F 52.0 °F 30.18 in NW 4.0 mph 8.0 mph 65 % 0.00 in 756 W/m2
11:36 64.6 °F 53.0 °F 30.18 in NW 5.0 mph 11.0 mph 66 % 0.00 in 427 W/m2
11:41 64.9 °F 52.9 °F 30.18 in NW 5.0 mph 11.0 mph 65 % 0.00 in 352 W/m2
11:46 65.1 °F 53.1 °F 30.18 in NW 4.0 mph 9.0 mph 65 % 0.00 in 269 W/m2
11:51 65.1 °F 52.2 °F 30.18 in NW 4.0 mph 10.0 mph 63 % 0.00 in 197 W/m2
11:56 64.9 °F 52.5 °F 30.18 in NW 3.0 mph 10.0 mph 64 % 0.00 in 250 W/m2
12:01 64.9 °F 52.5 °F 30.18 in NNW 1.0 mph 5.0 mph 64 % 0.00 in 360 W/m2
12:06 64.9 °F 52.0 °F 30.18 in NW 2.0 mph 7.0 mph 63 % 0.00 in 364 W/m2
12:11 64.9 °F 52.0 °F 30.18 in NW 3.0 mph 8.0 mph 63 % 0.00 in 445 W/m2
12:16 65.1 °F 52.2 °F 30.18 in NNW 3.0 mph 8.0 mph 63 % 0.00 in 262 W/m2
12:21 65.1 °F 52.2 °F 30.18 in NW 4.0 mph 10.0 mph 63 % 0.00 in 257 W/m2
12:26 65.1 °F 52.2 °F 30.18 in NW 6.0 mph 10.0 mph 63 % 0.00 in 457 W/m2
12:31 65.1 °F 51.8 °F 30.17 in NW 5.0 mph 9.0 mph 62 % 0.00 in 325 W/m2
12:36 65.5 °F 50.8 °F 30.17 in NW 4.0 mph 8.0 mph 59 % 0.00 in 930 W/m2
12:41 65.8 °F 51.1 °F 30.17 in NNW 3.0 mph 8.0 mph 59 % 0.00 in 624 W/m2
12:46 66.2 °F 51.4 °F 30.17 in NNW 1.0 mph 5.0 mph 59 % 0.00 in 849 W/m2
12:51 66.7 °F 52.0 °F 30.17 in North 2.0 mph 8.0 mph 59 % 0.00 in 1021 W/m2
12:56 67.1 °F 50.9 °F 30.17 in NNW 3.0 mph 8.0 mph 56 % 0.00 in 965 W/m2
13:01 67.5 °F 51.7 °F 30.17 in WNW 5.0 mph 14.0 mph 57 % 0.00 in 141 W/m2
13:06 67.3 °F 52.0 °F 30.17 in WNW 7.0 mph 14.0 mph 58 % 0.00 in 134 W/m2
13:11 66.7 °F 51.5 °F 30.17 in WNW 7.0 mph 12.0 mph 58 % 0.00 in 178 W/m2
13:16 66.4 °F 51.2 °F 30.17 in West 5.0 mph 9.0 mph 58 % 0.00 in 223 W/m2
13:21 66.0 °F 50.8 °F 30.17 in WNW 4.0 mph 9.0 mph 58 % 0.00 in 234 W/m2
13:26 65.8 °F 51.1 °F 30.17 in WNW 3.0 mph 7.0 mph 59 % 0.00 in 218 W/m2
13:31 65.7 °F 50.5 °F 30.17 in NW 5.0 mph 10.0 mph 58 % 0.00 in 265 W/m2
13:36 65.7 °F 50.5 °F 30.17 in NW 6.0 mph 11.0 mph 58 % 0.00 in 559 W/m2
13:42 65.8 °F 50.6 °F 30.17 in NW 6.0 mph 11.0 mph 58 % 0.00 in 471 W/m2
13:47 66.4 °F 50.7 °F 30.17 in NW 5.0 mph 10.0 mph 57 % 0.00 in 394 W/m2
13:52 66.6 °F 50.4 °F 30.17 in NW 5.0 mph 11.0 mph 56 % 0.00 in 501 W/m2
13:57 66.9 °F 49.7 °F 30.17 in NW 5.0 mph 12.0 mph 54 % 0.00 in 592 W/m2
14:02 67.3 °F 50.1 °F 30.17 in NW 5.0 mph 12.0 mph 54 % 0.00 in 480 W/m2
14:07 67.5 °F 50.2 °F 30.17 in NNW 3.0 mph 10.0 mph 54 % 0.00 in 584 W/m2
14:12 67.8 °F 50.6 °F 30.17 in NNW 3.0 mph 7.0 mph 54 % 0.00 in 473 W/m2
14:17 68.0 °F 50.2 °F 30.17 in NW 4.0 mph 9.0 mph 53 % 0.00 in 918 W/m2
14:22 68.4 °F 50.0 °F 30.17 in NW 5.0 mph 11.0 mph 52 % 0.00 in 508 W/m2
14:27 68.5 °F 49.2 °F 30.17 in WNW 6.0 mph 11.0 mph 50 % 0.00 in 281 W/m2
14:32 68.5 °F 49.7 °F 30.17 in WNW 6.0 mph 11.0 mph 51 % 0.00 in 469 W/m2
14:37 68.4 °F 49.0 °F 30.16 in WNW 5.0 mph 9.0 mph 50 % 0.00 in 555 W/m2
14:42 68.7 °F 49.3 °F 30.16 in WNW 5.0 mph 9.0 mph 50 % 0.00 in 758 W/m2
14:47 68.7 °F 49.9 °F 30.16 in WNW 6.0 mph 16.0 mph 51 % 0.00 in 526 W/m2
14:52 68.7 °F 51.4 °F 30.17 in WNW 7.0 mph 16.0 mph 54 % 0.00 in 373 W/m2
14:57 68.2 °F 51.9 °F 30.16 in West 8.0 mph 15.0 mph 56 % 0.00 in 301 W/m2
15:02 67.3 °F 51.0 °F 30.17 in West 9.0 mph 16.0 mph 56 % 0.00 in 274 W/m2
15:07 66.7 °F 51.0 °F 30.17 in West 10.0 mph 16.0 mph 57 % 0.00 in 269 W/m2
15:12 66.4 °F 51.2 °F 30.17 in West 10.0 mph 15.0 mph 58 % 0.00 in 313 W/m2
15:17 66.4 °F 51.2 °F 30.17 in West 9.0 mph 14.0 mph 58 % 0.00 in 283 W/m2
15:22 66.4 °F 51.2 °F 30.17 in WNW 8.0 mph 15.0 mph 58 % 0.00 in 285 W/m2
15:27 66.4 °F 50.7 °F 30.17 in WNW 8.0 mph 15.0 mph 57 % 0.00 in 294 W/m2
15:32 66.4 °F 51.6 °F 30.17 in WNW 7.0 mph 13.0 mph 59 % 0.00 in 330 W/m2
15:37 66.4 °F 51.2 °F 30.17 in NW 6.0 mph 12.0 mph 58 % 0.00 in 260 W/m2
15:42 66.6 °F 50.8 °F 30.17 in WNW 6.0 mph 11.0 mph 57 % 0.00 in 243 W/m2
15:47 66.6 °F 50.8 °F 30.17 in WNW 6.0 mph 10.0 mph 57 % 0.00 in 213 W/m2
15:52 66.6 °F 50.8 °F 30.16 in WNW 5.0 mph 10.0 mph 57 % 0.00 in 360 W/m2
15:57 66.7 °F 52.0 °F 30.17 in WNW 5.0 mph 9.0 mph 59 % 0.00 in 594 W/m2
16:02 67.1 °F 51.4 °F 30.17 in WNW 6.0 mph 11.0 mph 57 % 0.00 in 378 W/m2
16:07 67.3 °F 51.5 °F 30.17 in WNW 6.0 mph 11.0 mph 57 % 0.00 in 473 W/m2
16:12 67.5 °F 51.7 °F 30.17 in WNW 7.0 mph 11.0 mph 57 % 0.00 in 276 W/m2
16:18 67.5 °F 50.7 °F 30.17 in NW 7.0 mph 12.0 mph 55 % 0.00 in 239 W/m2
16:22 67.5 °F 51.7 °F 30.16 in NNW 7.0 mph 12.0 mph 57 % 0.00 in 294 W/m2
16:27 67.3 °F 51.5 °F 30.17 in NW 7.0 mph 18.0 mph 57 % 0.00 in 236 W/m2
16:32 66.9 °F 51.7 °F 30.17 in NW 9.0 mph 18.0 mph 58 % 0.00 in 214 W/m2
16:38 66.6 °F 51.8 °F 30.17 in NW 8.0 mph 14.0 mph 59 % 0.00 in 264 W/m2
16:43 66.6 °F 51.3 °F 30.17 in NW 8.0 mph 14.0 mph 58 % 0.00 in 561 W/m2
16:48 66.6 °F 51.8 °F 30.17 in WNW 9.0 mph 14.0 mph 59 % 0.00 in 225 W/m2
16:53 66.4 °F 51.2 °F 30.17 in WNW 9.0 mph 13.0 mph 58 % 0.00 in 213 W/m2
16:58 66.0 °F 50.3 °F 30.17 in NW 8.0 mph 13.0 mph 57 % 0.00 in 232 W/m2
17:03 65.8 °F 50.2 °F 30.17 in NW 7.0 mph 11.0 mph 57 % 0.00 in 276 W/m2
17:08 66.0 °F 49.9 °F 30.17 in WNW 7.0 mph 11.0 mph 56 % 0.00 in 264 W/m2
17:13 66.7 °F 51.0 °F 30.17 in WNW 6.0 mph 11.0 mph 57 % 0.00 in 485 W/m2
17:18 67.3 °F 52.9 °F 30.17 in WNW 7.0 mph 11.0 mph 60 % 0.00 in 353 W/m2
17:23 66.7 °F 53.7 °F 30.17 in NNW 8.0 mph 21.0 mph 63 % 0.00 in 100 W/m2
17:28 64.4 °F 54.8 °F 30.17 in North 8.0 mph 21.0 mph 71 % 0.01 in 65 W/m2
17:33 63.0 °F 54.9 °F 30.17 in North 6.0 mph 15.0 mph 75 % 0.01 in 56 W/m2
17:38 61.9 °F 55.3 °F 30.18 in NNE 4.0 mph 9.0 mph 79 % 0.01 in 44 W/m2
17:43 61.2 °F 54.9 °F 30.18 in NNE 3.0 mph 7.0 mph 80 % 0.01 in 40 W/m2
17:48 60.6 °F 54.8 °F 30.17 in NE 2.0 mph 6.0 mph 81 % 0.01 in 40 W/m2
17:53 60.4 °F 54.9 °F 30.18 in NE 1.0 mph 6.0 mph 82 % 0.01 in 49 W/m2
17:58 60.3 °F 54.7 °F 30.17 in Calm   4.0 mph 82 % 0.01 in 65 W/m2
18:03 60.1 °F 54.6 °F 30.18 in NE 1.0 mph 4.0 mph 82 % 0.01 in 79 W/m2
18:08 60.1 °F 54.9 °F 30.18 in NE 1.0 mph 5.0 mph 83 % 0.01 in 77 W/m2
18:13 60.1 °F 54.2 °F 30.18 in NNE 2.0 mph 7.0 mph 81 % 0.01 in 63 W/m2
18:18 60.1 °F 54.6 °F 30.18 in North 3.0 mph 7.0 mph 82 % 0.01 in 58 W/m2
18:23 60.1 °F 54.6 °F 30.18 in NNW 2.0 mph 7.0 mph 82 % 0.01 in 51 W/m2
18:28 60.3 °F 54.7 °F 30.18 in NNW 2.0 mph 6.0 mph 82 % 0.00 in 46 W/m2
18:33 60.3 °F 55.1 °F 30.18 in NNW 1.0 mph 2.0 mph 83 % 0.00 in 42 W/m2
18:38 60.3 °F 54.7 °F 30.18 in Calm   2.0 mph 82 % 0.00 in 44 W/m2
18:43 60.3 °F 54.7 °F 30.18 in Calm     82 % 0.00 in 54 W/m2
18:48 60.3 °F 55.1 °F 30.18 in Calm   2.0 mph 83 % 0.00 in 47 W/m2
18:52 60.4 °F 55.6 °F 30.18 in NNW 1.0 mph 4.0 mph 84 % 0.00 in 42 W/m2
18:57 60.3 °F 55.7 °F 30.18 in NNW 1.0 mph 4.0 mph 85 % 0.00 in 33 W/m2
19:02 60.3 °F 56.1 °F 30.18 in Calm   2.0 mph 86 % 0.00 in 26 W/m2
19:07 60.1 °F 55.9 °F 30.18 in Calm   5.0 mph 86 % 0.00 in 26 W/m2
19:12 59.9 °F 56.0 °F 30.18 in NNW 1.0 mph 5.0 mph 87 % 0.00 in 30 W/m2
19:17 59.7 °F 55.8 °F 30.19 in NNW 1.0 mph 5.0 mph 87 % 0.00 in 25 W/m2
19:22 59.5 °F 55.7 °F 30.19 in Calm   2.0 mph 87 % 0.00 in 18 W/m2
19:27 59.4 °F 54.8 °F 30.19 in NNW 1.0 mph 6.0 mph 85 % 0.00 in 16 W/m2
19:32 59.2 °F 54.3 °F 30.18 in NNW 1.0 mph 6.0 mph 84 % 0.00 in 12 W/m2
19:37 59.2 °F 54.0 °F 30.19 in NNW 2.0 mph 5.0 mph 83 % 0.00 in 9 W/m2
19:42 59.2 °F 54.0 °F 30.19 in NNW 2.0 mph 6.0 mph 83 % 0.00 in 7 W/m2
19:47 59.0 °F 53.5 °F 30.19 in NNW 2.0 mph 6.0 mph 82 % 0.00 in 5 W/m2
19:52 59.0 °F 53.2 °F 30.19 in NNW 2.0 mph 5.0 mph 81 % 0.00 in 0 W/m2
19:57 59.0 °F 53.2 °F 30.19 in NNW 2.0 mph 5.0 mph 81 % 0.00 in 0 W/m2
20:02 59.0 °F 53.2 °F 30.19 in NNW 1.0 mph 5.0 mph 81 % 0.00 in 0 W/m2
20:07 59.2 °F 53.4 °F 30.19 in Calm   5.0 mph 81 % 0.00 in 0 W/m2
20:12 59.0 °F 53.2 °F 30.19 in Calm   2.0 mph 81 % 0.00 in 0 W/m2
20:17 59.0 °F 53.2 °F 30.19 in Calm   2.0 mph 81 % 0.00 in 0 W/m2
20:22 59.0 °F 52.8 °F 30.20 in NNW 1.0 mph 6.0 mph 80 % 0.00 in 0 W/m2
20:27 59.0 °F 53.5 °F 30.20 in NNW 1.0 mph 6.0 mph 82 % 0.00 in 0 W/m2
20:32 59.0 °F 53.5 °F 30.20 in NNW 1.0 mph 5.0 mph 82 % 0.00 in 0 W/m2
20:37 58.8 °F 53.0 °F 30.20 in NW 2.0 mph 8.0 mph 81 % 0.00 in 0 W/m2
20:42 58.8 °F 53.0 °F 30.20 in NW 2.0 mph 8.0 mph 81 % 0.00 in 0 W/m2
20:47 58.6 °F 52.8 °F 30.20 in NW 2.0 mph 6.0 mph 81 % 0.00 in 0 W/m2
20:52 58.6 °F 52.8 °F 30.20 in NW 3.0 mph 6.0 mph 81 % 0.00 in 0 W/m2
20:57 58.5 °F 52.6 °F 30.21 in NW 3.0 mph 6.0 mph 81 % 0.00 in 0 W/m2
21:03 58.3 °F 52.5 °F 30.21 in NW 2.0 mph 6.0 mph 81 % 0.00 in 0 W/m2
21:08 58.3 °F 52.5 °F 30.21 in NW 2.0 mph 5.0 mph 81 % 0.00 in 0 W/m2
21:13 58.3 °F 52.8 °F 30.22 in NNW 3.0 mph 11.0 mph 82 % 0.01 in 0 W/m2
21:18 57.9 °F 53.1 °F 30.22 in NNW 5.0 mph 11.0 mph 84 % 0.02 in 0 W/m2
21:23 57.7 °F 53.3 °F 30.21 in NNW 5.0 mph 9.0 mph 85 % 0.03 in 0 W/m2
21:28 57.4 °F 53.2 °F 30.21 in NW 4.0 mph 9.0 mph 86 % 0.03 in 0 W/m2
21:33 57.0 °F 53.2 °F 30.21 in NW 4.0 mph 9.0 mph 87 % 0.03 in 0 W/m2
21:38 56.8 °F 53.3 °F 30.22 in NW 4.0 mph 7.0 mph 88 % 0.03 in 0 W/m2
21:43 56.8 °F 53.3 °F 30.22 in NNW 3.0 mph 6.0 mph 88 % 0.03 in 0 W/m2
21:48 56.7 °F 53.5 °F 30.22 in NW 4.0 mph 7.0 mph 89 % 0.03 in 0 W/m2
21:53 56.5 °F 53.3 °F 30.22 in NW 4.0 mph 7.0 mph 89 % 0.03 in 0 W/m2
21:58 56.3 °F 53.4 °F 30.22 in NNW 2.0 mph 5.0 mph 90 % 0.03 in 0 W/m2
22:03 56.1 °F 53.2 °F 30.22 in NNW 1.0 mph 5.0 mph 90 % 0.03 in 0 W/m2
22:08 56.1 °F 53.5 °F 30.22 in NNW 1.0 mph 5.0 mph 91 % 0.03 in 0 W/m2
22:13 56.1 °F 53.5 °F 30.22 in NNW 1.0 mph 5.0 mph 91 % 0.02 in 0 W/m2
22:18 56.1 °F 53.5 °F 30.22 in Calm   1.0 mph 91 % 0.01 in 0 W/m2
22:23 56.1 °F 53.5 °F 30.22 in Calm     91 % 0.00 in 0 W/m2
22:28 56.1 °F 53.8 °F 30.22 in Calm     92 % 0.00 in 0 W/m2
22:33 56.3 °F 54.0 °F 30.22 in Calm     92 % 0.00 in 0 W/m2
22:38 56.1 °F 53.8 °F 30.22 in Calm     92 % 0.00 in 0 W/m2
22:43 56.1 °F 53.8 °F 30.22 in Calm     92 % 0.00 in 0 W/m2
22:48 55.9 °F 53.6 °F 30.22 in Calm     92 % 0.00 in 0 W/m2
22:53 56.1 °F 54.1 °F 30.22 in Calm     93 % 0.00 in 0 W/m2
22:58 55.9 °F 53.9 °F 30.22 in Calm     93 % 0.00 in 0 W/m2
23:03 55.9 °F 53.6 °F 30.22 in Calm   1.0 mph 92 % 0.00 in 0 W/m2
23:08 55.9 °F 53.9 °F 30.22 in Calm   2.0 mph 93 % 0.00 in 0 W/m2
23:13 55.8 °F 53.8 °F 30.22 in Calm   2.0 mph 93 % 0.00 in 0 W/m2
23:18 55.8 °F 53.8 °F 30.22 in Calm     93 % 0.00 in 0 W/m2
23:23 55.6 °F 53.6 °F 30.23 in Calm     93 % 0.00 in 0 W/m2
23:28 55.6 °F 53.6 °F 30.22 in Calm   1.0 mph 93 % 0.00 in 0 W/m2
23:34 55.6 °F 53.6 °F 30.22 in Calm   2.0 mph 93 % 0.00 in 0 W/m2
23:39 55.4 °F 53.4 °F 30.22 in Calm   2.0 mph 93 % 0.00 in 0 W/m2
23:44 55.2 °F 53.2 °F 30.22 in Calm   1.0 mph 93 % 0.00 in 0 W/m2
23:49 55.2 °F 53.2 °F 30.22 in Calm     93 % 0.00 in 0 W/m2
23:54 55.0 °F 53.1 °F 30.22 in Calm     93 % 0.00 in 0 W/m2
23:59 55.0 °F 53.1 °F 30.22 in Calm     93 % 0.00 in 0 W/m2
Delerius-Weather
Compliments of Weather Underground - 2.25 mb

Data updates at regular intervals.